Hayes Center, Nebraska
Current Conditions -  °F | °C
As of 7:53 AM on Saturday 22 Nov 2014 (Local Time) from KIML Reporting Station
Clear Clear  
Wind Chill: 23°   Ceiling: Unl
Heat Index: 23°   Visibility: 10mi
Dew Point: 15°   Wind: 0mph
Humidity: 72%   Direction: NA
Pressure: 29.79"   Gusts: NA
Location:  40.51°N, 101.02°W
Report Text: KIML 221353Z AUTO 00000KT 10SM CLR M05/M09 A2979 RMK AO2 SLP115 T10501094
Loading
Personal Weather Stations






























Interactive Weather Map New forecast layout! Learn more

10-Day Weather Forecast

Advertisements
Track Severe Weather on mobile